Time;durP1;ratioP1;P1;durP2;ratioP2;P2;SDS_P1;SDS_P2;PMS_P1;PMS_P2;Temp;Humidity;BMP_temperature;BMP_pressure;BME280_temperature;BME280_humidity;BME280_pressure;Samples;Min_cycle;Max_cycle;Signal;HPM_P1;HPM_P2
2022/12/06 00:01:59;;;;;;;5.80;4.00;;;5.50;99.90;;;;;;5075468;28;20258;-77
2022/12/06 00:04:26;;;;;;;8.63;4.10;;;5.50;99.90;;;;;;5076384;28;20228;-79
2022/12/06 00:06:53;;;;;;;5.20;3.43;;;5.50;99.90;;;;;;5074928;28;20291;-75
2022/12/06 00:09:22;;;;;;;5.30;3.50;;;5.40;99.90;;;;;;5071695;28;20244;-78
2022/12/06 00:11:49;;;;;;;3.77;3.00;;;5.40;99.90;;;;;;5071734;28;20231;-79
2022/12/06 00:14:17;;;;;;;7.47;3.57;;;5.40;99.90;;;;;;5072196;28;20224;-77
2022/12/06 00:16:46;;;;;;;4.97;3.13;;;5.30;99.90;;;;;;5071157;28;20290;-76
2022/12/06 00:19:15;;;;;;;8.23;3.83;;;5.30;99.90;;;;;;5072267;28;20229;-76
2022/12/06 00:21:42;;;;;;;10.37;4.40;;;5.20;99.90;;;;;;5071905;28;20205;-77
2022/12/06 00:24:12;;;;;;;8.23;3.63;;;5.20;99.90;;;;;;5071469;28;20310;-76
2022/12/06 00:26:41;;;;;;;7.70;3.67;;;5.20;99.90;;;;;;5072692;28;20220;-77
2022/12/06 00:29:11;;;;;;;6.67;3.40;;;5.20;99.90;;;;;;5071641;28;20556;-78
2022/12/06 00:31:38;;;;;;;8.60;4.70;;;5.20;99.90;;;;;;5071151;28;20287;-76
2022/12/06 00:34:06;;;;;;;9.17;4.30;;;5.20;99.90;;;;;;5071983;28;20189;-76
2022/12/06 00:36:36;;;;;;;9.00;3.53;;;5.20;99.90;;;;;;5071129;28;20296;-75
2022/12/06 00:39:06;;;;;;;8.33;4.27;;;5.20;99.90;;;;;;5071356;28;20549;-75
2022/12/06 00:41:33;;;;;;;4.83;2.60;;;5.20;99.90;;;;;;5071708;28;20649;-75
2022/12/06 00:44:00;;;;;;;6.30;2.40;;;5.20;99.90;;;;;;5071326;28;20320;-75
2022/12/06 00:46:29;;;;;;;7.47;2.40;;;5.30;99.90;;;;;;5071200;28;20567;-76
2022/12/06 00:48:58;;;;;;;6.47;2.00;;;5.30;99.90;;;;;;5071552;28;20243;-75
2022/12/06 00:51:28;;;;;;;7.23;2.10;;;5.30;99.90;;;;;;5071275;28;20299;-75
2022/12/06 00:53:55;;;;;;;4.50;2.30;;;5.30;99.90;;;;;;5071831;28;20289;-75
2022/12/06 00:56:23;;;;;;;6.70;2.00;;;5.30;99.90;;;;;;5071786;28;20197;-75
2022/12/06 00:58:50;;;;;;;7.27;2.33;;;5.30;99.90;;;;;;5071488;28;20380;-75
2022/12/06 01:01:19;;;;;;;6.57;1.90;;;5.30;99.90;;;;;;5072076;28;20284;-74
2022/12/06 01:03:46;;;;;;;4.63;1.93;;;5.40;99.90;;;;;;5071966;28;20609;-75
2022/12/06 01:06:15;;;;;;;6.23;2.30;;;5.40;99.90;;;;;;5070626;28;20293;-74
2022/12/06 01:08:44;;;;;;;4.13;1.90;;;5.40;99.90;;;;;;5071518;28;20204;-76
2022/12/06 01:11:14;;;;;;;3.93;2.00;;;5.40;99.90;;;;;;5071335;28;20590;-77
2022/12/06 01:13:41;;;;;;;4.33;2.50;;;5.40;99.90;;;;;;5071034;28;20259;-76
2022/12/06 01:16:10;;;;;;;7.30;2.30;;;5.30;99.90;;;;;;5071712;28;20282;-75
2022/12/06 01:18:37;;;;;;;6.50;2.20;;;5.30;99.90;;;;;;5071272;28;20288;-75
2022/12/06 01:21:05;;;;;;;4.10;1.93;;;5.30;99.90;;;;;;5070794;28;20227;-75
2022/12/06 01:23:32;;;;;;;7.00;2.40;;;5.30;99.90;;;;;;5071493;28;20252;-75
2022/12/06 01:26:01;;;;;;;4.77;1.80;;;5.30;99.90;;;;;;5071602;28;20244;-76
2022/12/06 01:28:27;;;;;;;4.70;2.27;;;5.30;99.90;;;;;;5074575;28;20237;-78
2022/12/06 01:30:54;;;;;;;4.00;2.00;;;5.30;99.90;;;;;;5075265;28;20211;-77
2022/12/06 01:33:21;;;;;;;6.53;1.97;;;5.30;99.90;;;;;;5075334;28;20503;-78
2022/12/06 01:35:48;;;;;;;2.53;1.40;;;5.30;99.90;;;;;;5074435;28;20204;-77
2022/12/06 01:38:15;;;;;;;5.07;1.97;;;5.30;99.90;;;;;;5075016;28;20279;-77
2022/12/06 01:40:44;;;;;;;7.90;2.03;;;5.30;99.90;;;;;;5074659;28;20547;-79
2022/12/06 01:43:30;;;;;;;3.77;1.77;;;5.30;99.90;;;;;;5074913;28;20224;-79
2022/12/06 01:45:59;;;;;;;5.53;1.97;;;5.30;99.90;;;;;;5074813;28;20194;-75
2022/12/06 01:48:27;;;;;;;2.50;1.70;;;5.30;99.90;;;;;;5074732;28;20193;-75
2022/12/06 01:50:55;;;;;;;5.53;2.43;;;5.30;99.90;;;;;;5075159;28;20270;-79
2022/12/06 01:53:23;;;;;;;2.53;1.73;;;5.30;99.90;;;;;;5075541;28;20206;-77
2022/12/06 01:55:51;;;;;;;2.47;1.67;;;5.30;99.90;;;;;;5094383;28;20197;-76
2022/12/06 01:58:22;;;;;;;3.47;2.10;;;5.30;99.90;;;;;;5095133;28;20524;-75
2022/12/06 02:00:51;;;;;;;4.43;2.23;;;5.30;99.90;;;;;;5092613;28;20204;-76
2022/12/06 02:03:22;;;;;;;3.53;1.80;;;5.30;99.90;;;;;;5074143;28;20204;-77
2022/12/06 02:05:49;;;;;;;3.67;2.07;;;5.30;99.90;;;;;;5074907;28;20185;-76
2022/12/06 02:08:17;;;;;;;3.03;1.80;;;5.30;99.90;;;;;;5074235;28;20197;-78
2022/12/06 02:10:44;;;;;;;3.60;1.70;;;5.20;99.90;;;;;;5074081;28;20285;-78
2022/12/06 02:13:11;;;;;;;3.60;2.00;;;5.20;99.90;;;;;;5074601;28;20202;-77
2022/12/06 02:15:47;;;;;;;2.00;1.80;;;5.20;99.90;;;;;;5074147;28;20209;-76
2022/12/06 02:18:23;;;;;;;4.33;1.90;;;5.20;99.90;;;;;;5074639;28;20212;-75
2022/12/06 02:20:58;;;;;;;3.23;1.83;;;5.20;99.90;;;;;;5074217;28;20625;-76
2022/12/06 02:23:53;;;;;;;2.50;1.80;;;5.20;99.90;;;;;;5073477;28;20200;-75
2022/12/06 02:26:35;;;;;;;4.20;1.87;;;5.20;99.90;;;;;;5074393;28;20215;-76
2022/12/06 02:29:41;;;;;;;3.33;1.80;;;5.20;99.90;;;;;;5074072;28;20225;-78
2022/12/06 02:32:15;;;;;;;2.30;1.57;;;5.20;99.90;;;;;;5074131;28;20292;-77
2022/12/06 02:34:47;;;;;;;3.47;2.10;;;5.20;99.90;;;;;;5073739;28;20203;-77
2022/12/06 02:37:20;;;;;;;7.07;2.87;;;5.20;99.90;;;;;;5072636;28;20194;-79
2022/12/06 02:39:52;;;;;;;2.73;1.90;;;5.20;99.90;;;;;;5081232;28;20188;-79
2022/12/06 02:42:23;;;;;;;5.37;1.90;;;5.20;99.90;;;;;;5093774;28;20209;-77
2022/12/06 02:44:54;;;;;;;2.60;2.10;;;5.10;99.90;;;;;;5093490;28;20628;-76
2022/12/06 02:47:27;;;;;;;3.93;2.90;;;5.10;99.90;;;;;;5093820;28;20237;-76
2022/12/06 02:49:56;;;;;;;4.20;2.33;;;5.10;99.90;;;;;;5092965;28;20195;-77
2022/12/06 02:52:27;;;;;;;3.93;1.80;;;5.10;99.90;;;;;;5073187;28;20207;-77
2022/12/06 02:54:57;;;;;;;5.20;2.90;;;5.10;99.90;;;;;;5073530;28;20194;-76
2022/12/06 02:57:34;;;;;;;2.03;1.80;;;5.10;99.90;;;;;;5073455;28;20254;-79
2022/12/06 03:00:01;;;;;;;2.57;1.97;;;5.00;99.90;;;;;;5072763;28;20209;-77
2022/12/06 03:02:30;;;;;;;2.73;2.03;;;5.00;99.90;;;;;;5073743;28;20197;-79
2022/12/06 03:05:09;;;;;;;4.67;2.00;;;5.00;99.90;;;;;;5072873;28;20224;-79
2022/12/06 03:07:41;;;;;;;3.20;1.80;;;5.00;99.90;;;;;;5074047;28;20192;-78
2022/12/06 03:10:25;;;;;;;4.30;2.70;;;4.90;99.90;;;;;;5073092;28;20697;-78
2022/12/06 03:13:01;;;;;;;3.13;1.90;;;4.90;99.90;;;;;;5072541;28;20205;-78
2022/12/06 03:15:36;;;;;;;1.83;1.53;;;4.80;99.90;;;;;;5072799;28;20241;-78
2022/12/06 03:18:11;;;;;;;2.20;1.77;;;4.80;99.90;;;;;;5072939;28;20205;-79
2022/12/06 03:20:44;;;;;;;1.60;1.50;;;4.80;99.90;;;;;;5072573;28;20539;-78
2022/12/06 03:23:16;;;;;;;2.80;1.60;;;4.70;99.90;;;;;;5073155;28;20292;-77
2022/12/06 03:25:46;;;;;;;1.97;1.50;;;4.70;99.90;;;;;;5072940;28;20694;-77
2022/12/06 03:28:15;;;;;;;3.07;1.70;;;4.70;99.90;;;;;;5071967;28;20264;-78
2022/12/06 03:30:46;;;;;;;3.57;1.73;;;4.60;99.90;;;;;;5072796;28;20197;-77
2022/12/06 03:33:15;;;;;;;1.80;1.40;;;4.60;99.90;;;;;;5072596;28;20523;-76
2022/12/06 03:35:44;;;;;;;2.80;1.60;;;4.60;99.90;;;;;;5073129;28;20229;-77
2022/12/06 03:38:16;;;;;;;4.07;2.00;;;4.50;99.90;;;;;;5073254;28;20292;-77
2022/12/06 03:40:47;;;;;;;4.03;2.23;;;4.50;99.90;;;;;;5072629;28;20199;-77
2022/12/06 03:43:15;;;;;;;3.07;1.97;;;4.50;99.90;;;;;;5072623;28;20482;-77
2022/12/06 03:45:48;;;;;;;3.40;2.10;;;4.50;99.90;;;;;;5073530;28;20221;-76
2022/12/06 03:48:21;;;;;;;3.20;2.07;;;4.40;99.90;;;;;;5092483;28;20193;-77
2022/12/06 03:50:53;;;;;;;2.93;2.03;;;4.40;99.90;;;;;;5078261;28;20216;-77
2022/12/06 03:53:20;;;;;;;3.27;2.20;;;4.40;99.90;;;;;;5072902;28;20199;-77
2022/12/06 03:55:47;;;;;;;4.53;2.20;;;4.40;99.90;;;;;;5071637;28;20205;-77
2022/12/06 03:58:14;;;;;;;4.20;2.60;;;4.40;99.90;;;;;;5072539;28;20208;-78
2022/12/06 04:00:41;;;;;;;6.33;2.50;;;4.40;99.90;;;;;;5072622;28;20282;-75
2022/12/06 04:03:08;;;;;;;4.97;2.20;;;4.40;99.90;;;;;;5071918;28;20201;-77
2022/12/06 04:05:36;;;;;;;3.97;2.30;;;4.40;99.90;;;;;;5084556;28;20226;-77
2022/12/06 04:08:04;;;;;;;2.37;2.10;;;4.50;99.90;;;;;;5092455;28;20207;-77
2022/12/06 04:10:30;;;;;;;7.33;1.90;;;4.50;99.90;;;;;;5073509;28;20296;-77
2022/12/06 04:13:04;;;;;;;4.00;2.40;;;4.60;99.90;;;;;;5072341;28;20201;-76
2022/12/06 04:15:34;;;;;;;2.77;1.90;;;4.60;99.90;;;;;;5071305;28;20711;-77
2022/12/06 04:18:10;;;;;;;4.07;2.10;;;4.70;99.90;;;;;;5072269;28;20207;-77
2022/12/06 04:23:32;;;;;;;2.60;1.87;;;4.70;99.90;;;;;;5071918;28;20785;-78
2022/12/06 04:25:59;;;;;;;3.20;1.80;;;4.60;99.90;;;;;;5072406;28;20213;-77
2022/12/06 04:39:25;;;;;;;4.20;2.07;;;4.40;99.90;;;;;;5072309;28;20212;-78
2022/12/06 04:44:38;;;;;;;2.97;1.70;;;4.30;99.90;;;;;;5071268;28;20294;-77
2022/12/06 04:47:05;;;;;;;3.73;1.87;;;4.30;99.90;;;;;;5092145;28;20208;-78
2022/12/06 04:49:33;;;;;;;3.50;1.73;;;4.20;99.90;;;;;;5092027;28;20565;-78
2022/12/06 04:52:01;;;;;;;3.20;1.50;;;4.20;99.90;;;;;;5091298;28;20204;-77
2022/12/06 04:54:29;;;;;;;2.27;1.60;;;4.10;99.90;;;;;;5078014;28;20211;-77
2022/12/06 04:56:56;;;;;;;2.47;2.10;;;4.10;99.90;;;;;;5071992;28;20292;-77
2022/12/06 04:59:24;;;;;;;2.40;1.77;;;4.00;99.90;;;;;;5070908;28;20208;-77
2022/12/06 05:01:51;;;;;;;1.90;1.70;;;4.00;99.90;;;;;;5073503;28;20296;-77
2022/12/06 05:04:18;;;;;;;4.73;2.17;;;3.90;99.90;;;;;;5075925;28;20207;-77
2022/12/06 05:06:45;;;;;;;1.67;1.27;;;3.90;99.90;;;;;;5075252;28;20203;-77
2022/12/06 05:09:14;;;;;;;1.43;1.33;;;3.80;99.90;;;;;;5075506;28;20205;-77
2022/12/06 05:11:41;;;;;;;2.27;1.67;;;3.80;99.90;;;;;;5074763;28;20285;-77
2022/12/06 05:14:08;;;;;;;2.07;1.50;;;3.70;99.90;;;;;;5094226;28;20210;-77
2022/12/06 05:16:35;;;;;;;1.50;1.33;;;3.70;99.90;;;;;;5095955;28;20302;-77
2022/12/06 05:19:02;;;;;;;1.50;1.40;;;3.70;99.90;;;;;;5075124;28;20282;-77
2022/12/06 05:21:28;;;;;;;3.43;1.37;;;3.60;99.90;;;;;;5075470;28;20202;-76
2022/12/06 05:23:56;;;;;;;1.93;1.47;;;3.60;99.90;;;;;;5075722;28;20292;-77
2022/12/06 05:26:26;;;;;;;2.33;1.60;;;3.60;99.90;;;;;;5074646;28;20225;-77
2022/12/06 05:28:53;;;;;;;1.87;1.60;;;3.50;99.90;;;;;;5075548;28;20241;-77
2022/12/06 05:31:20;;;;;;;3.60;2.13;;;3.50;99.90;;;;;;5075281;28;20216;-77
2022/12/06 05:33:48;;;;;;;1.83;1.60;;;3.40;99.90;;;;;;5074945;28;20204;-77
2022/12/06 05:36:18;;;;;;;2.03;1.70;;;3.40;99.90;;;;;;5075666;28;20204;-77
2022/12/06 05:38:45;;;;;;;2.83;1.60;;;3.30;99.90;;;;;;5074591;28;20201;-77
2022/12/06 05:41:12;;;;;;;2.20;1.67;;;3.30;99.90;;;;;;5074504;28;20205;-77
2022/12/06 05:43:40;;;;;;;2.00;1.80;;;3.20;99.90;;;;;;5075067;28;20201;-78
2022/12/06 05:46:07;;;;;;;2.73;1.67;;;3.20;99.90;;;;;;5075072;28;20258;-78
2022/12/06 05:48:35;;;;;;;2.70;2.13;;;3.10;99.90;;;;;;5074599;28;20201;-77
2022/12/06 05:51:02;;;;;;;3.33;2.07;;;3.10;99.90;;;;;;5086322;28;20208;-77
2022/12/06 05:53:29;;;;;;;4.63;2.77;;;3.10;99.90;;;;;;5102179;28;20684;-77
2022/12/06 05:55:56;;;;;;;3.53;2.50;;;3.00;99.90;;;;;;5074266;28;20521;-77
2022/12/06 05:58:23;;;;;;;3.53;2.23;;;3.00;99.90;;;;;;5074530;28;20224;-77
2022/12/06 06:00:51;;;;;;;3.60;2.43;;;3.00;99.90;;;;;;5074143;28;20193;-77
2022/12/06 06:03:18;;;;;;;3.50;2.67;;;2.90;99.90;;;;;;5075171;28;20201;-78
2022/12/06 06:05:47;;;;;;;4.73;2.50;;;2.90;99.90;;;;;;5074797;28;20225;-77
2022/12/06 06:08:14;;;;;;;3.23;2.50;;;2.90;99.90;;;;;;5073988;28;20258;-78
2022/12/06 06:10:41;;;;;;;3.97;2.70;;;2.90;99.90;;;;;;5074958;28;20312;-78
2022/12/06 06:13:08;;;;;;;4.70;3.23;;;2.90;99.90;;;;;;5074329;28;20208;-77
2022/12/06 06:15:34;;;;;;;3.50;2.80;;;2.90;99.90;;;;;;5074290;28;20223;-78
2022/12/06 06:18:03;;;;;;;3.67;2.83;;;2.90;99.90;;;;;;5074850;28;20205;-77
2022/12/06 06:20:30;;;;;;;4.70;3.13;;;2.80;99.90;;;;;;5074524;28;20325;-77
2022/12/06 06:22:57;;;;;;;5.13;3.10;;;2.80;99.90;;;;;;5074478;28;20284;-77
2022/12/06 06:25:24;;;;;;;3.23;2.93;;;2.80;99.90;;;;;;5073968;28;20708;-77
2022/12/06 06:27:50;;;;;;;4.70;3.20;;;2.70;99.90;;;;;;5073757;28;20264;-77
2022/12/06 06:30:17;;;;;;;4.07;3.47;;;2.70;99.90;;;;;;5074162;28;20198;-77
2022/12/06 06:32:44;;;;;;;5.30;3.70;;;2.70;99.90;;;;;;5074472;28;20281;-75
2022/12/06 06:35:13;;;;;;;4.07;3.60;;;2.70;99.90;;;;;;5074203;28;20201;-77
2022/12/06 06:37:39;;;;;;;3.60;3.27;;;2.70;99.90;;;;;;5073585;28;20203;-77
2022/12/06 06:40:08;;;;;;;5.00;4.00;;;2.70;99.90;;;;;;5074011;28;20207;-77
2022/12/06 06:42:34;;;;;;;4.60;3.90;;;2.60;99.90;;;;;;5074370;28;20201;-78
2022/12/06 06:45:01;;;;;;;4.43;4.00;;;2.60;99.90;;;;;;5073284;28;20221;-76
2022/12/06 06:47:28;;;;;;;4.77;3.83;;;2.60;99.90;;;;;;5074407;28;20205;-78
2022/12/06 06:49:55;;;;;;;5.57;4.20;;;2.50;99.90;;;;;;5073903;28;20201;-78
2022/12/06 06:52:23;;;;;;;5.47;4.23;;;2.50;99.90;;;;;;5073232;28;20639;-76
2022/12/06 06:54:50;;;;;;;5.67;4.53;;;2.50;99.90;;;;;;5074204;28;20231;-76
2022/12/06 06:57:17;;;;;;;7.03;4.30;;;2.50;99.90;;;;;;5072857;28;20262;-75
2022/12/06 06:59:45;;;;;;;4.90;3.90;;;2.40;99.90;;;;;;5073960;28;20244;-77
2022/12/06 07:02:12;;;;;;;5.67;3.87;;;2.40;99.90;;;;;;5073317;28;20211;-78
2022/12/06 07:04:40;;;;;;;5.00;3.30;;;2.40;99.90;;;;;;5073180;28;20255;-74
2022/12/06 07:07:06;;;;;;;3.97;3.40;;;2.40;99.90;;;;;;5093810;28;20522;-77
2022/12/06 07:09:35;;;;;;;3.53;2.87;;;2.30;99.90;;;;;;5093802;28;20188;-77
2022/12/06 07:12:02;;;;;;;4.67;2.93;;;2.30;99.90;;;;;;5093185;28;20200;-75
2022/12/06 07:14:28;;;;;;;4.30;3.07;;;2.30;99.90;;;;;;5085501;28;20209;-78
2022/12/06 07:16:55;;;;;;;4.03;3.03;;;2.20;99.90;;;;;;5073559;28;20239;-77
2022/12/06 07:19:22;;;;;;;4.93;2.53;;;2.20;99.90;;;;;;5072787;28;20198;-79
2022/12/06 07:21:49;;;;;;;3.97;3.20;;;2.20;99.90;;;;;;5073288;28;20211;-77
2022/12/06 07:24:16;;;;;;;4.23;3.13;;;2.20;99.90;;;;;;5072222;28;20758;-78
2022/12/06 07:26:44;;;;;;;3.23;2.57;;;2.20;99.90;;;;;;5072421;28;20236;-78
2022/12/06 07:29:11;;;;;;;4.17;3.00;;;2.10;99.90;;;;;;5072393;28;20245;-75
2022/12/06 07:31:39;;;;;;;4.17;3.27;;;2.10;99.90;;;;;;5073012;28;20192;-79
2022/12/06 07:34:06;;;;;;;3.33;2.77;;;2.10;99.90;;;;;;5072335;28;20190;-77
2022/12/06 07:36:33;;;;;;;3.80;2.80;;;2.00;99.90;;;;;;5073031;28;20291;-78
2022/12/06 07:39:00;;;;;;;3.73;3.00;;;2.00;99.90;;;;;;5072949;28;20613;-79
2022/12/06 07:47:01;;;;;;;4.80;3.47;;;2.00;99.90;;;;;;5072280;28;20326;-78
2022/12/06 07:49:29;;;;;;;5.20;4.10;;;2.00;99.90;;;;;;5072967;28;20198;-78
2022/12/06 07:51:56;;;;;;;5.10;4.33;;;2.00;99.90;;;;;;5072587;28;20201;-78
2022/12/06 07:54:23;;;;;;;4.93;3.90;;;2.00;99.90;;;;;;5071682;28;20201;-78
2022/12/06 07:56:50;;;;;;;5.57;3.77;;;2.10;99.90;;;;;;5072887;28;20805;-78
2022/12/06 07:59:19;;;;;;;4.00;3.60;;;2.10;99.90;;;;;;5071336;28;20208;-79
2022/12/06 08:01:46;;;;;;;5.40;3.70;;;2.10;99.90;;;;;;5071876;28;20605;-78
2022/12/06 08:04:13;;;;;;;4.57;3.40;;;2.20;99.90;;;;;;5093829;28;20584;-78
2022/12/06 08:06:40;;;;;;;4.60;3.60;;;2.20;99.90;;;;;;5107286;28;20219;-78
2022/12/06 08:09:07;;;;;;;3.87;3.27;;;2.30;99.90;;;;;;5103100;28;20214;-79
2022/12/06 08:11:35;;;;;;;4.20;3.17;;;2.30;99.90;;;;;;5088529;28;20208;-79
2022/12/06 08:14:02;;;;;;;4.10;3.27;;;2.40;99.90;;;;;;5083793;28;20597;-79
2022/12/06 08:16:31;;;;;;;5.03;3.33;;;2.40;99.90;;;;;;5090349;28;20521;-79
2022/12/06 08:18:58;;;;;;;4.57;3.43;;;2.50;99.90;;;;;;5089439;28;20897;-79
2022/12/06 08:21:25;;;;;;;3.87;3.13;;;2.50;99.90;;;;;;5079511;28;20201;-78
2022/12/06 08:23:53;;;;;;;5.00;3.27;;;2.60;99.90;;;;;;5072147;28;20302;-79
2022/12/06 08:26:21;;;;;;;4.33;3.13;;;2.70;99.90;;;;;;5071477;28;20227;-78
2022/12/06 08:28:48;;;;;;;8.17;3.40;;;2.70;99.90;;;;;;5070755;28;20229;-78
2022/12/06 08:31:17;;;;;;;5.30;3.40;;;2.80;99.90;;;;;;5072115;28;20209;-79
2022/12/06 08:33:46;;;;;;;5.47;2.90;;;2.80;99.90;;;;;;5080716;28;20207;-80
2022/12/06 08:36:16;;;;;;;3.97;2.70;;;2.90;99.90;;;;;;5091431;28;20699;-78
2022/12/06 08:38:44;;;;;;;3.93;2.77;;;2.90;99.90;;;;;;5091267;28;20679;-79
2022/12/06 08:43:52;;;;;;;3.83;3.23;;;2.90;99.90;;;;;;5087409;28;20197;-79
2022/12/06 08:46:19;;;;;;;3.73;2.60;;;2.90;99.90;;;;;;5091528;28;20220;-79
2022/12/06 08:48:47;;;;;;;3.30;2.80;;;3.00;99.90;;;;;;5090251;28;20207;-79
2022/12/06 08:51:14;;;;;;;5.50;3.13;;;3.00;99.90;;;;;;5090895;28;20219;-79
2022/12/06 08:53:41;;;;;;;5.77;3.17;;;3.10;99.90;;;;;;5091752;28;20204;-79
2022/12/06 08:56:08;;;;;;;4.97;2.97;;;3.10;99.90;;;;;;5091030;28;20201;-79
2022/12/06 08:58:35;;;;;;;6.20;3.20;;;3.10;99.90;;;;;;5089582;28;20291;-80
2022/12/06 09:01:10;;;;;;;3.90;3.00;;;3.20;99.90;;;;;;5091238;28;20201;-78
2022/12/06 09:03:36;;;;;;;5.40;3.70;;;3.30;99.90;;;;;;5071297;28;20279;-79
2022/12/06 09:06:05;;;;;;;5.07;3.23;;;3.40;99.90;;;;;;5082749;28;20302;-79
2022/12/06 09:08:32;;;;;;;6.00;3.80;;;3.50;99.90;;;;;;5091593;28;20800;-79
2022/12/06 09:10:59;;;;;;;6.17;3.70;;;3.50;99.90;;;;;;5090211;28;20196;-79
2022/12/06 09:13:25;;;;;;;5.67;4.10;;;3.60;99.90;;;;;;5089664;28;20192;-79
2022/12/06 09:15:52;;;;;;;10.27;3.83;;;3.70;99.90;;;;;;5090963;28;21334;-78
2022/12/06 09:18:19;;;;;;;5.37;3.50;;;3.80;99.90;;;;;;5071828;28;20201;-79
2022/12/06 09:20:46;;;;;;;4.97;3.53;;;3.90;99.90;;;;;;5108290;28;20199;-79
2022/12/06 09:23:14;;;;;;;7.77;4.00;;;4.00;99.90;;;;;;5096632;28;20202;-79
2022/12/06 09:25:42;;;;;;;7.80;4.10;;;4.10;99.90;;;;;;5109258;28;20204;-78
2022/12/06 09:28:09;;;;;;;6.93;4.20;;;4.20;99.90;;;;;;5090773;28;20299;-79
2022/12/06 09:30:35;;;;;;;5.93;3.83;;;4.20;99.90;;;;;;5070832;28;20207;-78
2022/12/06 09:33:03;;;;;;;5.67;4.37;;;4.30;99.90;;;;;;5090404;28;20242;-78
2022/12/06 09:35:30;;;;;;;5.53;4.60;;;4.40;99.90;;;;;;5099509;28;20204;-79
2022/12/06 09:37:59;;;;;;;6.63;4.77;;;4.40;99.90;;;;;;5077982;28;20202;-79
2022/12/06 09:40:32;;;;;;;6.67;4.97;;;4.40;99.90;;;;;;5100963;28;20199;-78
2022/12/06 09:43:10;;;;;;;6.30;4.63;;;4.40;99.90;;;;;;5091428;28;20196;-78
2022/12/06 09:46:15;;;;;;;7.20;4.83;;;4.40;99.90;;;;;;5088610;28;20206;-78
2022/12/06 09:49:06;;;;;;;6.40;4.90;;;4.40;99.90;;;;;;5090729;28;20651;-78
2022/12/06 09:51:48;;;;;;;8.30;5.50;;;4.40;99.90;;;;;;5092454;28;20209;-78
2022/12/06 09:54:32;;;;;;;6.50;4.77;;;4.40;99.90;;;;;;5074340;28;20285;-79
2022/12/06 09:57:06;;;;;;;6.37;4.33;;;4.40;99.90;;;;;;5074669;28;20605;-79
2022/12/06 09:59:45;;;;;;;6.50;3.97;;;4.40;99.90;;;;;;5074221;28;20554;-79
2022/12/06 10:02:27;;;;;;;5.67;3.20;;;4.50;99.90;;;;;;5072861;28;20196;-79
2022/12/06 10:05:07;;;;;;;7.20;3.20;;;4.50;99.90;;;;;;5073420;28;20193;-79
2022/12/06 10:07:44;;;;;;;3.87;2.50;;;4.60;99.90;;;;;;5072625;28;20300;-78
2022/12/06 10:10:21;;;;;;;4.80;2.03;;;4.70;99.90;;;;;;5085843;28;20611;-79
2022/12/06 10:13:08;;;;;;;5.37;1.40;;;4.80;99.90;;;;;;5094304;28;20224;-79
2022/12/06 10:15:46;;;;;;;4.03;1.47;;;4.90;99.90;;;;;;5094062;28;20236;-79
2022/12/06 10:18:30;;;;;;;2.67;1.10;;;5.00;99.90;;;;;;5074799;28;20224;-79
2022/12/06 10:21:06;;;;;;;1.80;0.60;;;5.20;99.90;;;;;;5073593;28;20605;-78
2022/12/06 10:23:51;;;;;;;1.40;0.70;;;5.30;99.90;;;;;;5074365;28;20211;-79
2022/12/06 10:26:23;;;;;;;1.80;1.20;;;5.50;99.90;;;;;;5074902;28;20682;-79
2022/12/06 10:29:01;;;;;;;2.60;0.90;;;5.60;99.90;;;;;;5073608;28;20717;-79
2022/12/06 10:31:33;;;;;;;2.33;0.63;;;5.70;99.90;;;;;;5074507;28;20647;-79
2022/12/06 10:34:07;;;;;;;1.53;0.40;;;5.90;99.90;;;;;;5074327;28;20204;-79
2022/12/06 10:36:42;;;;;;;0.47;0.43;;;6.10;99.90;;;;;;5081778;28;20279;-79
2022/12/06 10:39:16;;;;;;;2.60;1.07;;;6.20;99.90;;;;;;5094196;28;20204;-79
2022/12/06 10:41:50;;;;;;;1.23;0.70;;;6.40;99.90;;;;;;5084659;28;20232;-79
2022/12/06 10:44:22;;;;;;;0.40;0.40;;;6.50;99.90;;;;;;5073627;28;20201;-78
2022/12/06 10:47:03;;;;;;;4.10;0.70;;;6.60;99.90;;;;;;5073801;28;20292;-79
2022/12/06 10:49:37;;;;;;;1.80;0.50;;;6.70;99.90;;;;;;5073154;28;20209;-79
2022/12/06 10:52:17;;;;;;;4.60;0.77;;;6.80;99.90;;;;;;5073609;28;20279;-80
2022/12/06 10:54:53;;;;;;;3.10;0.63;;;6.90;99.90;;;;;;5073005;28;20193;-80
2022/12/06 10:57:26;;;;;;;0.80;0.50;;;7.00;99.90;;;;;;5072943;28;20258;-80
2022/12/06 11:00:01;;;;;;;1.57;0.80;;;7.10;99.90;;;;;;5072374;28;20280;-78
2022/12/06 11:02:36;;;;;;;0.83;0.63;;;7.10;99.90;;;;;;5075231;28;20192;-80
2022/12/06 11:05:10;;;;;;;1.50;0.90;;;7.10;99.90;;;;;;5072484;28;20212;-80
2022/12/06 11:07:42;;;;;;;2.23;0.80;;;7.20;99.90;;;;;;5073279;28;20262;-80
2022/12/06 11:10:19;;;;;;;4.27;0.70;;;7.30;99.90;;;;;;5072837;28;20205;-80
2022/12/06 11:12:47;;;;;;;2.83;0.90;;;7.30;99.90;;;;;;5072601;28;20226;-79
2022/12/06 11:15:22;;;;;;;3.40;1.67;;;7.40;99.90;;;;;;5073225;28;20216;-80
2022/12/06 11:17:52;;;;;;;2.53;0.50;;;7.30;99.90;;;;;;5071888;28;20334;-80
2022/12/06 11:20:25;;;;;;;1.43;0.60;;;7.40;99.90;;;;;;5072810;28;20215;-81
2022/12/06 11:23:04;;;;;;;0.90;0.50;;;7.40;99.90;;;;;;5072801;28;20203;-81
2022/12/06 11:25:41;;;;;;;1.30;0.70;;;7.30;99.90;;;;;;5071942;28;20227;-80
2022/12/06 11:28:21;;;;;;;0.97;0.50;;;7.20;99.90;;;;;;5072890;28;20247;-80
2022/12/06 11:30:53;;;;;;;1.67;0.50;;;7.20;99.90;;;;;;5073275;28;20201;-80
2022/12/06 11:33:26;;;;;;;1.83;0.90;;;7.20;99.90;;;;;;5072055;28;20288;-81
2022/12/06 11:35:52;;;;;;;3.23;1.60;;;7.20;99.90;;;;;;5079292;28;20272;-79
2022/12/06 11:38:19;;;;;;;4.00;0.80;;;7.40;99.90;;;;;;5089713;28;20284;-79
2022/12/06 11:40:49;;;;;;;4.30;1.50;;;7.50;99.90;;;;;;5092823;28;20224;-81
2022/12/06 11:43:20;;;;;;;1.53;0.90;;;7.70;99.90;;;;;;5092624;28;20196;-80
2022/12/06 11:45:50;;;;;;;1.70;0.77;;;7.70;99.90;;;;;;5094359;28;20192;-81
2022/12/06 11:48:19;;;;;;;1.37;0.60;;;7.70;99.90;;;;;;5096919;28;20658;-81
2022/12/06 11:50:48;;;;;;;1.23;0.60;;;7.70;99.90;;;;;;5087724;28;20234;-80
2022/12/06 11:53:21;;;;;;;0.47;0.40;;;7.70;99.90;;;;;;5092052;28;20227;-81
2022/12/06 11:55:52;;;;;;;1.10;0.43;;;7.70;99.90;;;;;;5101000;28;20184;-80
2022/12/06 11:58:26;;;;;;;0.70;0.50;;;7.70;99.90;;;;;;5104630;28;20799;-81
2022/12/06 12:01:00;;;;;;;1.50;0.80;;;7.60;99.90;;;;;;5082775;28;20597;-79
2022/12/06 12:03:30;;;;;;;1.73;0.60;;;7.70;99.90;;;;;;5091135;28;20196;-80
2022/12/06 12:06:19;;;;;;;0.70;0.40;;;7.70;99.90;;;;;;5092160;28;20224;-81
2022/12/06 12:08:56;;;;;;;0.63;0.50;;;7.70;99.90;;;;;;5083006;28;20202;-80
2022/12/06 12:11:27;;;;;;;1.17;0.40;;;7.60;99.90;;;;;;5077665;28;20200;-80
2022/12/06 12:13:57;;;;;;;0.60;0.60;;;7.60;99.90;;;;;;5090200;28;20196;-81
2022/12/06 12:16:29;;;;;;;2.20;1.33;;;7.70;99.90;;;;;;5089515;28;20847;-80
2022/12/06 12:18:59;;;;;;;2.13;1.37;;;7.80;99.90;;;;;;5100801;28;20195;-79
2022/12/06 12:21:36;;;;;;;3.50;1.10;;;7.80;99.90;;;;;;5087298;28;20252;-81
2022/12/06 12:24:04;;;;;;;10.40;2.63;;;8.00;99.90;;;;;;5091637;28;20275;-79
2022/12/06 12:26:40;;;;;;;16.90;3.47;;;8.00;99.90;;;;;;5090927;28;20510;-81
2022/12/06 12:29:16;;;;;;;6.90;2.30;;;8.00;99.90;;;;;;5086145;28;20381;-79
2022/12/06 12:31:52;;;;;;;1.93;1.17;;;8.00;99.90;;;;;;5072276;28;20672;-78
2022/12/06 12:34:21;;;;;;;1.87;0.73;;;8.10;99.90;;;;;;5086873;28;20196;-80
2022/12/06 12:36:50;;;;;;;3.10;0.63;;;8.10;99.90;;;;;;5091859;28;20203;-80
2022/12/06 12:39:30;;;;;;;1.00;0.70;;;8.10;99.90;;;;;;5080422;28;20205;-80
2022/12/06 12:41:57;;;;;;;3.30;0.60;;;8.10;99.90;;;;;;5071845;28;20196;-80
2022/12/06 12:44:26;;;;;;;2.30;0.80;;;8.10;99.90;;;;;;5086779;28;20228;-80
2022/12/06 12:46:57;;;;;;;1.10;0.53;;;8.10;99.90;;;;;;5078427;28;20229;-81
2022/12/06 12:49:30;;;;;;;1.67;0.70;;;8.10;99.90;;;;;;5086285;28;20622;-82
2022/12/06 12:51:59;;;;;;;1.27;0.70;;;8.00;99.90;;;;;;5087137;28;20193;-81
2022/12/06 12:54:29;;;;;;;2.57;0.97;;;8.00;99.90;;;;;;5086070;28;20197;-82
2022/12/06 12:56:57;;;;;;;0.70;0.40;;;8.00;99.90;;;;;;5091519;28;20269;-81
2022/12/06 12:59:27;;;;;;;1.63;0.53;;;8.00;99.90;;;;;;5092302;28;20208;-82
2022/12/06 13:02:01;;;;;;;1.53;0.50;;;7.90;99.90;;;;;;5092131;28;20196;-81
2022/12/06 13:04:41;;;;;;;1.17;0.40;;;7.90;99.90;;;;;;5082564;28;20223;-79
2022/12/06 13:07:15;;;;;;;1.07;0.40;;;7.90;99.90;;;;;;5072174;28;20225;-81
2022/12/06 13:09:49;;;;;;;1.80;0.40;;;7.90;99.90;;;;;;5087499;28;20204;-81
2022/12/06 13:12:20;;;;;;;1.30;0.50;;;7.90;99.90;;;;;;5072456;28;20208;-81
2022/12/06 13:14:53;;;;;;;2.97;0.77;;;7.90;99.90;;;;;;5087478;28;20291;-83
2022/12/06 13:17:25;;;;;;;1.20;0.77;;;7.90;99.90;;;;;;5092267;28;20585;-82
2022/12/06 13:19:53;;;;;;;0.93;0.60;;;7.80;99.90;;;;;;5092133;28;20256;-81
2022/12/06 13:22:24;;;;;;;3.63;1.47;;;7.80;99.90;;;;;;5092906;28;20196;-81
2022/12/06 13:24:59;;;;;;;2.10;0.60;;;7.80;99.90;;;;;;5081365;28;20284;-80
2022/12/06 13:27:28;;;;;;;2.57;0.60;;;7.80;99.90;;;;;;5076216;28;20438;-83
2022/12/06 13:30:00;;;;;;;2.67;0.73;;;7.80;99.90;;;;;;5041722;28;20234;-83
2022/12/06 13:32:33;;;;;;;2.60;0.70;;;7.80;99.90;;;;;;5035206;28;20277;-82
2022/12/06 13:35:05;;;;;;;1.37;0.50;;;7.80;99.90;;;;;;5036173;28;20214;-82
2022/12/06 13:37:41;;;;;;;3.10;0.60;;;7.80;99.90;;;;;;5035633;28;20222;-83
2022/12/06 13:40:50;;;;;;;1.10;0.50;;;7.80;99.90;;;;;;5049799;28;20206;-83